Terminal Aerodrome Forecast
Issued by NWS

Home | Current Version | Previous Version | Text Only | Print | Product List | Glossary On
Versions: 1 2 3 4 5 6 7 8 9 10 11 12 13 14
000
FTUS46 KHNX 201816 AAA
TAFBFL
TAF AMD
KBFL 201816Z 2018/2118 VRB04KT P6SM SCT035 BKN200
      TEMPO 2018/2021 BKN035
     FM202100 30006KT P6SM BKN050
     FM210400 34006KT P6SM VCSH OVC050
      TEMPO 2114/2118 BKN030=

USA.gov is the U.S. government's official web portal to all federal, state and local government web resources and services.